This is the latest recevied weather packets stored in our database for station/object CA3EVY-3. If no packets are shown the sender has not sent any weather packets the latest 10 day(s).
| Time | Temp. | Humidity | Pressure | Rain* | Wind** | Luminosity | Snow |
|---|---|---|---|---|---|---|---|
| 1788678903 | 13.33° C | 32% | 914.4 hPa | - | - | - | - |
| 1788676204 | 12.78° C | 39% | 915 hPa | - | - | - | - |
| 1788672604 | 12.22° C | 43% | 915.6 hPa | - | - | - | - |
| 1788671703 | 12.22° C | 43% | 915.7 hPa | - | - | - | - |
| 1788670804 | 12.22° C | 43% | 915.9 hPa | - | - | - | - |
| 1788669903 | 12.22° C | 43% | 916 hPa | - | - | - | - |
| 1788669003 | 12.78° C | 44% | 916.1 hPa | - | - | - | - |
| 1788668103 | 12.78° C | 44% | 916.2 hPa | - | - | - | - |
| 1788667204 | 12.78° C | 44% | 916.2 hPa | - | - | - | - |
| 1788666303 | 12.78° C | 44% | 916.3 hPa | - | - | - | - |
| 1788665403 | 12.78° C | 46% | 916.4 hPa | - | - | - | - |
| 1788664507 | 12.78° C | 46% | 916.3 hPa | - | - | - | - |
| 1788663604 | 13.33° C | 46% | 916.4 hPa | - | - | - | - |
| 1788662704 | 13.33° C | 46% | 916.4 hPa | - | - | - | - |
| 1788661803 | 13.33° C | 45% | 916.4 hPa | - | - | - | - |
| 1788660903 | 13.33° C | 45% | 916.5 hPa | - | - | - | - |
| 1788653704 | 16.11° C | 43% | 916.7 hPa | - | - | - | - |
| 1788647404 | 19.44° C | 31% | 916.5 hPa | - | - | - | - |
| 1788640204 | 22.78° C | 31% | 916.2 hPa | - | - | - | - |
| 1788639304 | 22.78° C | 31% | 916.2 hPa | - | - | - | - |
| 1788637504 | 22.78° C | 30% | 916.1 hPa | - | - | - | - |
| 1788636604 | 22.78° C | 30% | 916.1 hPa | - | - | - | - |
| 1788635703 | 22.78° C | 30% | 916.2 hPa | - | - | - | - |
| 1788634803 | 22.22° C | 32% | 916.2 hPa | - | - | - | - |
| 1788633903 | 22.22° C | 32% | 916.4 hPa | - | - | - | - |
* Rain since midnight (hover to see other rain measurements)
** Current wind speed in m/s (hover to see current wind gust speed)